createdAt,value
2022-10-13T00:00:53.408Z,3.87
2022-10-13T00:03:21.573Z,3.33
2022-10-13T00:05:52.108Z,3.77
2022-10-13T00:08:22.068Z,3.70
2022-10-13T00:10:51.743Z,3.40
2022-10-13T00:13:24.901Z,3.40
2022-10-13T00:15:53.353Z,4.47
2022-10-13T00:18:22.443Z,4.23
2022-10-13T00:20:53.235Z,2.90
2022-10-13T00:23:21.968Z,3.40
2022-10-13T00:25:51.352Z,3.67
2022-10-13T00:28:21.551Z,4.10
2022-10-13T00:30:49.685Z,3.80
2022-10-13T00:33:17.685Z,3.67
2022-10-13T00:35:47.374Z,3.60
2022-10-13T00:38:18.492Z,3.10
2022-10-13T00:40:48.001Z,3.90
2022-10-13T00:43:18.691Z,3.67
2022-10-13T00:45:49.911Z,3.30
2022-10-13T00:48:19.898Z,3.90
2022-10-13T00:50:48.563Z,3.70
2022-10-13T00:53:21.880Z,4.80
2022-10-13T00:55:52.068Z,4.10
2022-10-13T00:58:24.343Z,4.07
2022-10-13T01:00:54.114Z,3.80
2022-10-13T01:03:22.790Z,3.70
2022-10-13T01:05:52.433Z,4.20
2022-10-13T01:08:26.928Z,3.37
2022-10-13T01:11:05.566Z,3.50
2022-10-13T01:13:38.407Z,4.00
2022-10-13T01:16:13.783Z,4.30
2022-10-13T01:18:52.276Z,4.20
2022-10-13T01:21:30.707Z,3.77
2022-10-13T01:24:38.229Z,3.90
2022-10-13T01:27:31.940Z,4.00
2022-10-13T01:30:10.790Z,3.97
2022-10-13T01:33:10.048Z,3.50
2022-10-13T01:35:46.151Z,3.67
2022-10-13T01:38:23.588Z,3.43
2022-10-13T01:40:59.732Z,3.50
2022-10-13T01:43:31.744Z,4.20
2022-10-13T01:46:06.515Z,3.80
2022-10-13T01:48:36.897Z,2.83
2022-10-13T01:51:07.695Z,4.17
2022-10-13T01:53:36.547Z,4.20
2022-10-13T01:56:04.947Z,3.60
2022-10-13T01:58:36.090Z,3.50
2022-10-13T02:01:21.290Z,4.00
2022-10-13T02:03:58.747Z,3.70
2022-10-13T02:06:33.190Z,3.53
2022-10-13T02:09:06.389Z,4.43
2022-10-13T02:11:34.531Z,3.93
2022-10-13T02:14:06.291Z,3.87
2022-10-13T02:16:39.161Z,4.00
2022-10-13T02:19:10.063Z,3.90
2022-10-13T02:21:38.715Z,3.40
2022-10-13T02:24:07.801Z,4.13
2022-10-13T02:26:37.285Z,4.10
2022-10-13T02:29:10.776Z,3.70
2022-10-13T02:31:41.436Z,4.83
2022-10-13T02:34:10.004Z,4.43
2022-10-13T02:36:39.069Z,4.20
2022-10-13T02:39:08.628Z,4.20
2022-10-13T02:41:36.732Z,5.73
2022-10-13T02:44:05.287Z,5.03
2022-10-13T02:46:43.204Z,4.00
2022-10-13T02:49:11.647Z,4.13
2022-10-13T02:51:40.508Z,3.87
2022-10-13T02:54:09.081Z,4.47
2022-10-13T02:56:37.231Z,4.20
2022-10-13T02:59:05.622Z,4.27
2022-10-13T03:01:34.023Z,3.97
2022-10-13T03:04:03.441Z,4.83
2022-10-13T03:06:31.532Z,4.90
2022-10-13T03:09:00.217Z,4.90
2022-10-13T03:11:28.358Z,5.17
2022-10-13T03:13:56.731Z,4.20
2022-10-13T03:16:24.803Z,3.87
2022-10-13T03:19:02.944Z,4.50
2022-10-13T03:21:31.004Z,4.07
2022-10-13T03:23:59.061Z,4.10
2022-10-13T03:26:27.357Z,4.17
2022-10-13T03:28:55.459Z,4.97
2022-10-13T03:31:23.864Z,3.73
2022-10-13T03:33:52.305Z,4.33
2022-10-13T03:36:21.978Z,4.43
2022-10-13T03:38:51.524Z,4.40
2022-10-13T03:41:20.307Z,4.87
2022-10-13T03:43:51.619Z,4.77
2022-10-13T03:46:19.902Z,5.03
2022-10-13T03:48:48.661Z,4.27
2022-10-13T03:51:18.659Z,3.70
2022-10-13T03:53:48.981Z,4.30
2022-10-13T03:56:19.938Z,4.23
2022-10-13T03:58:55.362Z,5.20
2022-10-13T04:01:25.206Z,4.53
2022-10-13T04:03:54.593Z,4.50
2022-10-13T04:06:23.231Z,4.60
2022-10-13T04:08:52.986Z,3.93
2022-10-13T04:11:21.885Z,3.90
2022-10-13T04:13:52.717Z,4.50
2022-10-13T04:16:23.471Z,3.90
2022-10-13T04:18:54.195Z,4.13
2022-10-13T04:21:23.380Z,4.60
2022-10-13T04:23:55.097Z,5.40
2022-10-13T04:26:24.488Z,4.47
2022-10-13T04:28:54.085Z,5.40
2022-10-13T04:31:22.777Z,5.50
2022-10-13T04:33:51.780Z,4.53
2022-10-13T04:36:20.372Z,5.60
2022-10-13T04:38:52.886Z,5.13
2022-10-13T04:41:21.732Z,4.90
2022-10-13T04:43:50.281Z,4.43
2022-10-13T04:46:20.527Z,5.77
2022-10-13T04:48:50.806Z,5.33
2022-10-13T04:51:22.936Z,5.97
2022-10-13T04:53:55.969Z,7.53
2022-10-13T04:56:24.088Z,6.40
2022-10-13T04:58:52.218Z,7.70
2022-10-13T05:01:22.791Z,6.90
2022-10-13T05:03:53.180Z,7.80
2022-10-13T05:06:23.270Z,6.30
2022-10-13T05:08:58.820Z,8.50
2022-10-13T05:11:27.948Z,6.30
2022-10-13T05:13:56.356Z,7.83
2022-10-13T05:16:25.657Z,7.00
2022-10-13T05:19:02.132Z,7.03
2022-10-13T05:21:30.803Z,6.90
2022-10-13T05:24:02.311Z,7.23
2022-10-13T05:26:32.086Z,7.27
2022-10-13T05:29:01.705Z,7.27
2022-10-13T05:31:34.207Z,7.10
2022-10-13T05:34:02.745Z,7.17
2022-10-13T05:36:32.995Z,7.27
2022-10-13T05:39:03.550Z,7.03
2022-10-13T05:41:32.253Z,6.83
2022-10-13T05:44:04.057Z,7.07
2022-10-13T05:46:32.404Z,7.20
2022-10-13T05:49:00.505Z,7.27
2022-10-13T05:51:31.732Z,6.80
2022-10-13T05:54:05.079Z,7.80
2022-10-13T05:56:36.335Z,6.43
2022-10-13T05:59:07.808Z,8.00
2022-10-13T06:01:40.684Z,6.50
2022-10-13T06:04:14.571Z,7.57
2022-10-13T06:06:46.792Z,7.37
2022-10-13T06:09:16.759Z,6.00
2022-10-13T06:11:45.085Z,6.63
2022-10-13T06:14:13.111Z,7.90
2022-10-13T06:16:41.443Z,6.57
2022-10-13T06:19:09.565Z,7.00
2022-10-13T06:21:55.099Z,7.43
2022-10-13T06:24:24.530Z,9.00
2022-10-13T06:26:52.647Z,8.40
2022-10-13T06:29:20.895Z,8.70
2022-10-13T06:31:48.960Z,7.97
2022-10-13T06:34:17.367Z,8.30
2022-10-13T06:36:46.043Z,7.47
2022-10-13T06:39:14.446Z,8.73
2022-10-13T06:41:43.859Z,7.73
2022-10-13T06:44:12.267Z,9.80
2022-10-13T06:46:40.532Z,8.00
2022-10-13T06:49:10.270Z,8.20
2022-10-13T06:51:38.367Z,7.83
2022-10-13T06:54:06.532Z,7.20
2022-10-13T06:56:34.800Z,7.30
2022-10-13T06:59:12.845Z,7.57
2022-10-13T07:01:41.936Z,6.33
2022-10-13T07:04:14.107Z,6.60
2022-10-13T07:06:42.958Z,6.70
2022-10-13T07:09:11.373Z,7.33
2022-10-13T07:11:39.717Z,6.00
2022-10-13T07:14:07.750Z,6.33
2022-10-13T07:16:37.161Z,7.07
2022-10-13T07:19:06.991Z,7.67
2022-10-13T07:21:35.185Z,7.20
2022-10-13T07:24:04.014Z,6.30
2022-10-13T07:26:33.947Z,6.30
2022-10-13T07:29:02.412Z,6.63
2022-10-13T07:31:30.553Z,6.20
2022-10-13T07:34:00.811Z,6.97
2022-10-13T07:36:29.818Z,6.63
2022-10-13T07:38:58.481Z,6.47
2022-10-13T07:41:26.580Z,6.90
2022-10-13T07:43:57.135Z,6.80
2022-10-13T07:46:25.708Z,16.60
2022-10-13T07:48:54.230Z,7.83
2022-10-13T07:51:24.578Z,6.93
2022-10-13T07:53:52.831Z,6.63
2022-10-13T07:56:20.939Z,7.30
2022-10-13T07:59:21.833Z,7.90
2022-10-13T08:01:49.907Z,7.50
2022-10-13T08:04:18.027Z,6.87
2022-10-13T08:06:47.514Z,8.60
2022-10-13T08:09:15.896Z,8.10
2022-10-13T08:11:43.935Z,8.00
2022-10-13T08:14:13.885Z,8.03
2022-10-13T08:16:48.549Z,7.97
2022-10-13T08:19:22.041Z,8.17
2022-10-13T08:21:59.958Z,7.23
2022-10-13T08:24:29.386Z,7.80
2022-10-13T08:26:58.747Z,8.07
2022-10-13T08:29:26.916Z,7.80
2022-10-13T08:32:01.463Z,7.80
2022-10-13T08:34:29.490Z,8.13
2022-10-13T08:37:00.187Z,8.40
2022-10-13T08:39:28.265Z,8.47
2022-10-13T08:41:58.056Z,8.67
2022-10-13T08:45:10.845Z,8.43
2022-10-13T08:47:35.262Z,9.00
2022-10-13T08:50:12.673Z,10.20
2022-10-13T08:52:48.996Z,8.87
2022-10-13T08:55:25.958Z,9.20
2022-10-13T08:57:54.418Z,9.13
2022-10-13T09:00:27.367Z,9.50
2022-10-13T09:02:59.020Z,10.20
2022-10-13T09:05:37.427Z,9.93
2022-10-13T09:08:19.796Z,9.87
2022-10-13T09:10:49.859Z,10.20
2022-10-13T09:13:21.128Z,11.67
2022-10-13T09:15:51.351Z,10.40
2022-10-13T09:18:19.424Z,10.47
2022-10-13T09:20:47.738Z,9.53
2022-10-13T09:23:22.459Z,10.43
2022-10-13T09:25:52.593Z,9.97
2022-10-13T09:28:24.261Z,10.47
2022-10-13T09:31:03.786Z,9.73
2022-10-13T09:33:36.346Z,9.83
2022-10-13T09:36:13.475Z,9.10
2022-10-13T09:38:45.944Z,9.13
2022-10-13T09:41:21.300Z,10.33
2022-10-13T09:44:02.149Z,9.67
2022-10-13T09:46:34.154Z,9.77
2022-10-13T09:49:06.511Z,8.70
2022-10-13T09:51:39.058Z,8.93
2022-10-13T09:54:37.998Z,8.67
2022-10-13T09:57:14.693Z,8.90
2022-10-13T09:59:47.264Z,8.70
2022-10-13T10:02:25.140Z,9.70
2022-10-13T10:05:01.179Z,9.20
2022-10-13T10:07:33.810Z,9.10
2022-10-13T10:10:09.129Z,9.70
2022-10-13T10:12:40.933Z,9.50
2022-10-13T10:15:19.481Z,9.83
2022-10-13T10:17:55.283Z,10.93
2022-10-13T10:20:57.818Z,10.00
2022-10-13T10:23:36.423Z,13.10
2022-10-13T10:26:13.762Z,12.50
2022-10-13T10:29:00.573Z,36.83
2022-10-13T10:31:40.188Z,11.77
2022-10-13T10:34:36.119Z,10.73
2022-10-13T10:37:21.333Z,11.47
2022-10-13T10:40:03.614Z,11.13
2022-10-13T10:42:59.087Z,11.03
2022-10-13T10:45:31.455Z,11.50
2022-10-13T10:48:04.596Z,10.57
2022-10-13T10:50:34.842Z,12.13
2022-10-13T10:53:07.640Z,11.70
2022-10-13T10:55:46.093Z,10.83
2022-10-13T10:58:25.682Z,11.00
2022-10-13T11:01:00.583Z,12.10
2022-10-13T11:03:42.214Z,11.97
2022-10-13T11:06:27.195Z,13.23
2022-10-13T11:08:55.681Z,12.43
2022-10-13T11:11:41.534Z,11.90
2022-10-13T11:14:31.174Z,14.60
2022-10-13T11:17:18.722Z,12.57
2022-10-13T11:19:51.443Z,14.03
2022-10-13T11:22:23.046Z,15.97
2022-10-13T11:24:57.245Z,14.33
2022-10-13T11:27:40.812Z,14.77
2022-10-13T11:30:43.139Z,14.50
2022-10-13T11:33:35.502Z,11.97
2022-10-13T11:36:32.879Z,15.80
2022-10-13T11:39:10.960Z,13.93
2022-10-13T11:41:49.512Z,14.80
2022-10-13T11:47:12.963Z,13.90
2022-10-13T11:50:08.379Z,14.80
2022-10-13T11:53:01.872Z,15.00
2022-10-13T11:55:40.116Z,14.10
2022-10-13T11:58:15.405Z,13.90
2022-10-13T12:00:52.493Z,15.33
2022-10-13T12:03:23.019Z,14.27
2022-10-13T12:05:53.595Z,12.10
2022-10-13T12:08:22.678Z,14.50
2022-10-13T12:10:57.192Z,12.83
2022-10-13T12:13:27.499Z,12.67
2022-10-13T12:16:03.118Z,12.23
2022-10-13T12:18:34.102Z,14.67
2022-10-13T12:21:09.721Z,13.30
2022-10-13T12:23:38.403Z,12.60
2022-10-13T12:26:07.315Z,12.70
2022-10-13T12:29:03.728Z,11.20
2022-10-13T12:31:42.038Z,9.87
2022-10-13T12:34:21.424Z,11.40
2022-10-13T12:36:57.252Z,10.80
2022-10-13T12:39:26.323Z,11.40
2022-10-13T12:41:56.042Z,10.40
2022-10-13T12:44:26.187Z,12.10
2022-10-13T12:46:56.283Z,11.50
2022-10-13T12:49:26.475Z,10.97
2022-10-13T12:51:59.972Z,9.10
2022-10-13T12:54:30.785Z,10.77
2022-10-13T12:57:01.523Z,9.90
2022-10-13T12:59:31.567Z,10.70
2022-10-13T13:02:01.725Z,9.97
2022-10-13T13:04:42.246Z,9.70
2022-10-13T13:07:35.377Z,9.20
2022-10-13T13:10:15.809Z,9.03
2022-10-13T13:12:44.654Z,9.37
2022-10-13T13:15:37.557Z,12.20
2022-10-13T13:18:35.662Z,10.20
2022-10-13T13:21:07.037Z,10.27
2022-10-13T13:23:37.006Z,9.93
2022-10-13T13:26:13.396Z,10.50
2022-10-13T13:28:45.659Z,10.10
2022-10-13T13:31:15.920Z,9.37
2022-10-13T13:33:44.316Z,9.33
2022-10-13T13:36:16.752Z,9.03
2022-10-13T13:38:49.524Z,11.50
2022-10-13T13:41:20.099Z,10.33
2022-10-13T13:43:48.665Z,10.17
2022-10-13T13:46:19.239Z,10.40
2022-10-13T13:48:47.421Z,9.80
2022-10-13T13:51:15.532Z,9.67
2022-10-13T13:53:46.233Z,10.70
2022-10-13T13:56:17.561Z,10.80
2022-10-13T13:58:46.268Z,11.40
2022-10-13T14:01:15.563Z,10.60
2022-10-13T14:03:43.953Z,10.20
2022-10-13T14:06:20.041Z,9.73
2022-10-13T14:08:48.420Z,10.17
2022-10-13T14:11:17.871Z,10.40
2022-10-13T14:13:46.024Z,9.03
2022-10-13T14:16:18.280Z,10.87
2022-10-13T14:18:46.666Z,9.30
2022-10-13T14:21:15.049Z,10.90
2022-10-13T14:23:46.882Z,9.47
2022-10-13T14:26:17.105Z,10.27
2022-10-13T14:28:45.917Z,9.70
2022-10-13T14:31:14.093Z,8.90
2022-10-13T14:33:44.358Z,10.50
2022-10-13T14:36:12.474Z,10.23
2022-10-13T14:38:40.822Z,10.83
2022-10-13T14:41:09.825Z,9.13
2022-10-13T14:43:39.233Z,9.70
2022-10-13T14:46:07.882Z,9.73
2022-10-13T14:48:37.375Z,9.70
2022-10-13T14:51:06.662Z,11.37
2022-10-13T14:53:35.856Z,12.57
2022-10-13T14:56:05.279Z,11.17
2022-10-13T14:58:34.398Z,11.43
2022-10-13T15:01:04.769Z,12.07
2022-10-13T15:03:33.356Z,12.43
2022-10-13T15:06:01.424Z,13.37
2022-10-13T15:08:29.489Z,12.83
2022-10-13T15:11:00.856Z,11.33
2022-10-13T15:13:29.133Z,11.93
2022-10-13T15:16:00.926Z,10.33
2022-10-13T15:18:30.567Z,9.93
2022-10-13T15:20:58.900Z,10.80
2022-10-13T15:23:27.331Z,11.53
2022-10-13T15:25:57.756Z,12.23
2022-10-13T15:28:27.453Z,11.23
2022-10-13T15:30:55.564Z,11.20
2022-10-13T15:33:23.852Z,10.33
2022-10-13T15:35:54.578Z,10.50
2022-10-13T15:38:23.706Z,11.13
2022-10-13T15:40:53.027Z,11.73
2022-10-13T15:43:21.235Z,11.73
2022-10-13T15:45:55.835Z,10.00
2022-10-13T15:48:25.794Z,11.13
2022-10-13T15:50:56.065Z,11.17
2022-10-13T15:53:24.180Z,11.37
2022-10-13T15:55:52.528Z,12.37
2022-10-13T15:58:20.724Z,11.30
2022-10-13T16:00:48.863Z,10.60
2022-10-13T16:03:19.439Z,11.27
2022-10-13T16:05:48.216Z,10.53
2022-10-13T16:08:17.737Z,11.73
2022-10-13T16:10:45.790Z,11.40
2022-10-13T16:13:15.783Z,11.27
2022-10-13T16:15:44.364Z,11.50
2022-10-13T16:18:12.434Z,10.90
2022-10-13T16:20:45.199Z,10.27
2022-10-13T16:23:13.293Z,11.53
2022-10-13T16:25:42.767Z,10.83
2022-10-13T16:28:10.860Z,11.03
2022-10-13T16:30:39.334Z,11.13
2022-10-13T16:33:07.594Z,10.30
2022-10-13T16:35:35.698Z,11.80
2022-10-13T16:38:06.875Z,11.40
2022-10-13T16:40:34.946Z,11.10
2022-10-13T16:43:04.393Z,10.00
2022-10-13T16:45:55.136Z,10.60
2022-10-13T16:48:20.600Z,9.87
2022-10-13T16:50:48.701Z,11.40
2022-10-13T16:53:20.684Z,10.90
2022-10-13T16:55:49.027Z,9.83
2022-10-13T16:58:19.103Z,10.67
2022-10-13T17:00:47.307Z,11.30
2022-10-13T17:03:15.411Z,12.17
2022-10-13T17:05:43.452Z,12.07
2022-10-13T17:08:11.471Z,9.77
2022-10-13T17:10:39.519Z,11.30
2022-10-13T17:13:38.013Z,9.97
2022-10-13T17:16:06.611Z,11.37
2022-10-13T17:18:35.189Z,11.43
2022-10-13T17:21:05.080Z,10.70
2022-10-13T17:23:33.269Z,10.87
2022-10-13T17:26:03.393Z,10.40
2022-10-13T17:28:31.664Z,13.37
2022-10-13T17:31:04.246Z,10.70
2022-10-13T17:33:35.241Z,11.90
2022-10-13T17:36:06.281Z,12.33
2022-10-13T17:38:53.326Z,11.57
2022-10-13T17:41:21.678Z,10.97
2022-10-13T17:43:51.406Z,12.87
2022-10-13T17:46:39.289Z,11.07
2022-10-13T17:49:10.230Z,12.17
2022-10-13T17:51:38.777Z,12.33
2022-10-13T17:54:12.930Z,11.20
2022-10-13T17:57:06.962Z,27.17
2022-10-13T17:59:36.059Z,13.50
2022-10-13T18:02:05.698Z,13.97
2022-10-13T18:04:33.824Z,14.33
2022-10-13T18:07:01.922Z,13.70
2022-10-13T18:09:30.266Z,13.20
2022-10-13T18:11:58.679Z,13.83
2022-10-13T18:14:26.749Z,21.87
2022-10-13T18:16:55.237Z,15.67
2022-10-13T18:19:24.722Z,43.10
2022-10-13T18:21:53.130Z,24.47
2022-10-13T18:24:21.318Z,16.97
2022-10-13T18:26:49.379Z,15.23
2022-10-13T18:29:17.545Z,15.10
2022-10-13T18:31:45.615Z,15.30
2022-10-13T18:34:15.925Z,14.80
2022-10-13T18:36:48.043Z,15.50
2022-10-13T18:39:18.775Z,15.90
2022-10-13T18:41:50.119Z,15.07
2022-10-13T18:44:19.111Z,16.00
2022-10-13T18:46:50.455Z,17.40
2022-10-13T18:49:22.919Z,16.87
2022-10-13T18:51:52.560Z,17.47
2022-10-13T18:54:20.739Z,16.40
2022-10-13T18:56:48.902Z,14.30
2022-10-13T18:59:17.578Z,15.80
2022-10-13T19:01:45.689Z,17.40
2022-10-13T19:04:14.802Z,24.57
2022-10-13T19:06:43.360Z,17.20
2022-10-13T19:09:14.860Z,16.63
2022-10-13T19:11:43.452Z,15.60
2022-10-13T19:14:15.018Z,15.77
2022-10-13T19:16:44.574Z,15.43
2022-10-13T19:19:12.953Z,16.90
2022-10-13T19:21:41.542Z,15.03
2022-10-13T19:24:10.360Z,14.43
2022-10-13T19:26:40.157Z,15.40
2022-10-13T19:29:10.761Z,15.37
2022-10-13T19:31:40.299Z,15.93
2022-10-13T19:34:09.084Z,15.60
2022-10-13T19:36:39.947Z,15.50
2022-10-13T19:39:12.062Z,16.83
2022-10-13T19:41:41.557Z,17.23
2022-10-13T19:44:09.848Z,15.50
2022-10-13T19:46:41.561Z,16.13
2022-10-13T19:49:10.619Z,17.23
2022-10-13T19:51:43.520Z,16.60
2022-10-13T19:54:12.239Z,13.30
2022-10-13T19:56:48.073Z,15.70
2022-10-13T19:59:17.445Z,14.13
2022-10-13T20:01:45.601Z,13.60
2022-10-13T20:04:15.818Z,15.10
2022-10-13T20:06:44.809Z,14.87
2022-10-13T20:09:13.648Z,17.63
2022-10-13T20:11:41.839Z,14.60
2022-10-13T20:14:11.213Z,14.70
2022-10-13T20:16:39.289Z,14.00
2022-10-13T20:19:07.727Z,14.40
2022-10-13T20:21:35.763Z,14.90
2022-10-13T20:24:04.029Z,13.50
2022-10-13T20:26:32.613Z,14.40
2022-10-13T20:29:01.011Z,12.90
2022-10-13T20:31:49.059Z,14.50
2022-10-13T20:34:17.135Z,14.07
2022-10-13T20:36:45.210Z,15.00
2022-10-13T20:39:13.244Z,19.37
2022-10-13T20:41:41.443Z,16.17
2022-10-13T20:44:11.010Z,13.97
2022-10-13T20:46:39.119Z,13.70
2022-10-13T20:49:11.333Z,12.30
2022-10-13T20:51:40.412Z,11.77
2022-10-13T20:54:09.438Z,15.57
2022-10-13T20:56:37.540Z,11.97
2022-10-13T20:59:07.865Z,11.90
2022-10-13T21:01:36.882Z,13.77
2022-10-13T21:04:05.805Z,14.83
2022-10-13T21:06:35.676Z,13.87
2022-10-13T21:09:05.119Z,12.50
2022-10-13T21:11:33.268Z,14.30
2022-10-13T21:14:06.111Z,11.90
2022-10-13T21:16:34.922Z,12.87
2022-10-13T21:19:03.415Z,11.90
2022-10-13T21:21:33.358Z,11.83
2022-10-13T21:24:05.283Z,11.07
2022-10-13T21:26:34.170Z,11.47
2022-10-13T21:29:02.915Z,12.40
2022-10-13T21:31:31.814Z,11.40
2022-10-13T21:33:59.938Z,10.60
2022-10-13T21:36:30.594Z,11.27
2022-10-13T21:39:01.330Z,11.50
2022-10-13T21:41:31.255Z,11.40
2022-10-13T21:44:00.195Z,12.13
2022-10-13T21:46:33.991Z,12.60
2022-10-13T21:49:04.108Z,11.00
2022-10-13T21:51:34.153Z,11.20
2022-10-13T21:54:04.781Z,12.40
2022-10-13T21:56:35.217Z,11.43
2022-10-13T21:59:05.246Z,10.90
2022-10-13T22:01:34.068Z,12.70
2022-10-13T22:04:18.443Z,11.47
2022-10-13T22:07:12.454Z,11.03
2022-10-13T22:10:51.431Z,10.17
2022-10-13T22:13:21.330Z,10.77
2022-10-13T22:15:49.527Z,10.30
2022-10-13T22:18:20.301Z,10.07
2022-10-13T22:20:48.368Z,10.40
2022-10-13T22:23:16.421Z,10.00
2022-10-13T22:25:45.873Z,10.57
2022-10-13T22:28:14.366Z,10.67
2022-10-13T22:30:44.706Z,10.70
2022-10-13T22:33:14.124Z,11.63
2022-10-13T22:35:42.206Z,10.70
2022-10-13T22:38:15.902Z,9.60
2022-10-13T22:40:43.950Z,9.50
2022-10-13T22:43:11.999Z,8.77
2022-10-13T22:45:40.293Z,10.40
2022-10-13T22:48:11.949Z,9.03
2022-10-13T22:50:39.973Z,9.60
2022-10-13T22:53:08.290Z,9.57
2022-10-13T22:55:39.511Z,10.20
2022-10-13T22:58:07.717Z,9.50
2022-10-13T23:00:35.840Z,9.87
2022-10-13T23:03:04.373Z,9.90
2022-10-13T23:05:33.852Z,10.10
2022-10-13T23:08:01.902Z,9.50
2022-10-13T23:10:31.650Z,10.30
2022-10-13T23:12:59.921Z,10.13
2022-10-13T23:15:27.957Z,9.40
2022-10-13T23:17:56.011Z,10.17
2022-10-13T23:20:24.816Z,9.80
2022-10-13T23:22:54.222Z,10.30
2022-10-13T23:25:22.531Z,11.03
2022-10-13T23:27:50.625Z,10.03
2022-10-13T23:30:19.015Z,10.07
2022-10-13T23:32:47.246Z,10.70
2022-10-13T23:35:15.317Z,10.43
2022-10-13T23:37:43.354Z,10.63
2022-10-13T23:40:13.550Z,10.80
2022-10-13T23:42:41.629Z,10.33
2022-10-13T23:45:10.626Z,11.97
2022-10-13T23:47:38.673Z,12.20
2022-10-13T23:50:07.503Z,11.60
2022-10-13T23:52:35.583Z,11.70
2022-10-13T23:55:03.936Z,11.67
2022-10-13T23:57:33.432Z,12.30
